sensor_id;sensor_type;location;lat;lon;timestamp;pressure;altitude;pressure_sealevel;temperature;humidity
62942;BME280;49042;47.318;19.874;2023-12-14T00:02:41;99079.00;;;6.64;100.00
62942;BME280;49042;47.318;19.874;2023-12-14T00:05:43;99075.00;;;6.77;100.00
62942;BME280;49042;47.318;19.874;2023-12-14T00:08:44;99061.66;;;6.61;100.00
62942;BME280;49042;47.318;19.874;2023-12-14T00:11:46;99055.84;;;6.70;100.00
62942;BME280;49042;47.318;19.874;2023-12-14T00:14:48;99054.00;;;6.66;100.00
62942;BME280;49042;47.318;19.874;2023-12-14T00:17:49;99070.41;;;6.31;100.00
62942;BME280;49042;47.318;19.874;2023-12-14T00:20:51;99073.00;;;6.32;100.00
62942;BME280;49042;47.318;19.874;2023-12-14T00:23:54;99078.00;;;6.59;100.00
62942;BME280;49042;47.318;19.874;2023-12-14T00:26:55;99079.00;;;6.30;100.00
62942;BME280;49042;47.318;19.874;2023-12-14T00:29:57;99100.00;;;6.41;100.00
62942;BME280;49042;47.318;19.874;2023-12-14T00:32:59;99092.56;;;6.53;100.00
62942;BME280;49042;47.318;19.874;2023-12-14T00:36:00;99107.31;;;6.56;100.00
62942;BME280;49042;47.318;19.874;2023-12-14T00:39:02;99096.94;;;6.56;100.00
62942;BME280;49042;47.318;19.874;2023-12-14T00:42:04;99099.53;;;6.56;100.00
62942;BME280;49042;47.318;19.874;2023-12-14T00:45:06;99097.50;;;6.78;100.00
62942;BME280;49042;47.318;19.874;2023-12-14T00:48:08;99096.22;;;6.62;100.00
62942;BME280;49042;47.318;19.874;2023-12-14T00:51:10;99105.28;;;6.80;100.00
62942;BME280;49042;47.318;19.874;2023-12-14T00:54:12;99112.84;;;6.72;100.00
62942;BME280;49042;47.318;19.874;2023-12-14T00:57:13;99113.66;;;6.69;100.00
62942;BME280;49042;47.318;19.874;2023-12-14T01:00:15;99127.13;;;6.90;100.00
62942;BME280;49042;47.318;19.874;2023-12-14T01:03:17;99139.91;;;6.82;100.00
62942;BME280;49042;47.318;19.874;2023-12-14T01:06:19;99149.41;;;6.83;100.00
62942;BME280;49042;47.318;19.874;2023-12-14T01:09:21;99160.44;;;6.74;100.00
62942;BME280;49042;47.318;19.874;2023-12-14T01:12:22;99164.09;;;6.82;100.00
62942;BME280;49042;47.318;19.874;2023-12-14T01:15:24;99172.13;;;6.93;100.00
62942;BME280;49042;47.318;19.874;2023-12-14T01:18:26;99157.38;;;6.91;100.00
62942;BME280;49042;47.318;19.874;2023-12-14T01:21:28;99147.94;;;6.57;100.00
62942;BME280;49042;47.318;19.874;2023-12-14T01:24:30;99165.34;;;6.64;100.00
62942;BME280;49042;47.318;19.874;2023-12-14T01:27:31;99145.03;;;6.80;100.00
62942;BME280;49042;47.318;19.874;2023-12-14T01:30:33;99141.63;;;6.83;100.00
62942;BME280;49042;47.318;19.874;2023-12-14T01:33:35;99136.31;;;6.42;100.00
62942;BME280;49042;47.318;19.874;2023-12-14T01:36:37;99129.19;;;6.68;100.00
62942;BME280;49042;47.318;19.874;2023-12-14T01:39:38;99122.03;;;6.59;100.00
62942;BME280;49042;47.318;19.874;2023-12-14T01:42:40;99129.88;;;6.28;100.00
62942;BME280;49042;47.318;19.874;2023-12-14T01:45:42;99136.19;;;6.38;100.00
62942;BME280;49042;47.318;19.874;2023-12-14T01:48:43;99143.72;;;6.62;100.00
62942;BME280;49042;47.318;19.874;2023-12-14T01:51:45;99160.81;;;6.23;100.00
62942;BME280;49042;47.318;19.874;2023-12-14T01:54:47;99143.50;;;6.53;100.00
62942;BME280;49042;47.318;19.874;2023-12-14T01:57:49;99135.06;;;6.62;100.00
62942;BME280;49042;47.318;19.874;2023-12-14T02:03:59;99132.84;;;6.42;100.00
62942;BME280;49042;47.318;19.874;2023-12-14T02:07:01;99139.19;;;6.21;100.00
62942;BME280;49042;47.318;19.874;2023-12-14T02:10:03;99162.06;;;6.07;100.00
62942;BME280;49042;47.318;19.874;2023-12-14T02:13:05;99170.84;;;6.10;100.00
62942;BME280;49042;47.318;19.874;2023-12-14T02:16:06;99183.59;;;6.06;100.00
62942;BME280;49042;47.318;19.874;2023-12-14T02:19:08;99189.59;;;6.05;100.00
62942;BME280;49042;47.318;19.874;2023-12-14T02:22:10;99175.75;;;6.03;100.00
62942;BME280;49042;47.318;19.874;2023-12-14T02:25:12;99182.03;;;6.09;100.00
62942;BME280;49042;47.318;19.874;2023-12-14T02:28:14;99170.06;;;6.46;100.00
62942;BME280;49042;47.318;19.874;2023-12-14T02:31:17;99153.97;;;6.58;100.00
62942;BME280;49042;47.318;19.874;2023-12-14T02:34:18;99153.94;;;6.56;100.00
62942;BME280;49042;47.318;19.874;2023-12-14T02:37:22;99161.75;;;6.25;100.00
62942;BME280;49042;47.318;19.874;2023-12-14T02:40:23;99170.03;;;6.13;100.00
62942;BME280;49042;47.318;19.874;2023-12-14T02:43:25;99166.34;;;6.36;100.00
62942;BME280;49042;47.318;19.874;2023-12-14T02:46:27;99171.41;;;6.31;100.00
62942;BME280;49042;47.318;19.874;2023-12-14T02:49:28;99170.94;;;6.46;100.00
62942;BME280;49042;47.318;19.874;2023-12-14T02:52:30;99177.75;;;6.42;100.00
62942;BME280;49042;47.318;19.874;2023-12-14T02:55:32;99191.00;;;6.53;100.00
62942;BME280;49042;47.318;19.874;2023-12-14T02:58:34;99183.09;;;6.83;100.00
62942;BME280;49042;47.318;19.874;2023-12-14T03:01:36;99183.91;;;6.80;100.00
62942;BME280;49042;47.318;19.874;2023-12-14T03:04:38;99193.75;;;6.60;100.00
62942;BME280;49042;47.318;19.874;2023-12-14T03:07:42;99181.25;;;6.77;100.00
62942;BME280;49042;47.318;19.874;2023-12-14T03:10:44;99169.25;;;6.81;100.00
62942;BME280;49042;47.318;19.874;2023-12-14T03:13:46;99171.41;;;6.63;100.00
62942;BME280;49042;47.318;19.874;2023-12-14T03:16:48;99172.38;;;6.69;100.00
62942;BME280;49042;47.318;19.874;2023-12-14T03:19:50;99164.22;;;6.87;100.00
62942;BME280;49042;47.318;19.874;2023-12-14T03:22:52;99176.75;;;6.70;100.00
62942;BME280;49042;47.318;19.874;2023-12-14T03:25:54;99166.25;;;6.65;100.00
62942;BME280;49042;47.318;19.874;2023-12-14T03:28:55;99180.59;;;6.52;100.00
62942;BME280;49042;47.318;19.874;2023-12-14T03:31:57;99181.41;;;6.51;100.00
62942;BME280;49042;47.318;19.874;2023-12-14T03:34:59;99194.50;;;6.56;100.00
62942;BME280;49042;47.318;19.874;2023-12-14T03:38:01;99194.66;;;6.62;100.00
62942;BME280;49042;47.318;19.874;2023-12-14T03:41:03;99208.84;;;6.42;100.00
62942;BME280;49042;47.318;19.874;2023-12-14T03:44:05;99225.38;;;6.48;100.00
62942;BME280;49042;47.318;19.874;2023-12-14T03:47:07;99223.50;;;6.74;100.00
62942;BME280;49042;47.318;19.874;2023-12-14T03:50:11;99225.16;;;6.40;100.00
62942;BME280;49042;47.318;19.874;2023-12-14T03:53:13;99236.00;;;6.26;100.00
62942;BME280;49042;47.318;19.874;2023-12-14T03:56:15;99252.47;;;6.59;100.00
62942;BME280;49042;47.318;19.874;2023-12-14T03:59:16;99258.09;;;6.77;100.00
62942;BME280;49042;47.318;19.874;2023-12-14T04:02:18;99256.91;;;6.63;100.00
62942;BME280;49042;47.318;19.874;2023-12-14T04:05:20;99263.88;;;6.35;100.00
62942;BME280;49042;47.318;19.874;2023-12-14T04:08:22;99266.94;;;6.21;100.00
62942;BME280;49042;47.318;19.874;2023-12-14T04:11:23;99257.34;;;6.17;100.00
62942;BME280;49042;47.318;19.874;2023-12-14T04:14:25;99261.87;;;6.26;100.00
62942;BME280;49042;47.318;19.874;2023-12-14T04:17:27;99276.37;;;6.19;100.00
62942;BME280;49042;47.318;19.874;2023-12-14T04:20:29;99281.28;;;6.39;100.00
62942;BME280;49042;47.318;19.874;2023-12-14T04:23:30;99294.78;;;6.29;100.00
62942;BME280;49042;47.318;19.874;2023-12-14T04:26:32;99296.66;;;6.35;100.00
62942;BME280;49042;47.318;19.874;2023-12-14T04:29:34;99295.38;;;6.20;100.00
62942;BME280;49042;47.318;19.874;2023-12-14T04:32:36;99279.66;;;6.14;100.00
62942;BME280;49042;47.318;19.874;2023-12-14T04:35:38;99278.88;;;6.16;100.00
62942;BME280;49042;47.318;19.874;2023-12-14T04:38:40;99275.88;;;6.31;100.00
62942;BME280;49042;47.318;19.874;2023-12-14T04:41:42;99278.13;;;6.50;100.00
62942;BME280;49042;47.318;19.874;2023-12-14T04:44:43;99274.28;;;6.37;100.00
62942;BME280;49042;47.318;19.874;2023-12-14T04:47:45;99283.87;;;6.39;100.00
62942;BME280;49042;47.318;19.874;2023-12-14T04:50:47;99279.50;;;6.38;100.00
62942;BME280;49042;47.318;19.874;2023-12-14T04:53:48;99288.91;;;6.35;100.00
62942;BME280;49042;47.318;19.874;2023-12-14T04:56:50;99298.44;;;6.36;100.00
62942;BME280;49042;47.318;19.874;2023-12-14T04:59:52;99292.87;;;6.23;100.00
62942;BME280;49042;47.318;19.874;2023-12-14T05:02:53;99297.72;;;6.12;100.00
62942;BME280;49042;47.318;19.874;2023-12-14T05:05:55;99302.81;;;6.09;100.00
62942;BME280;49042;47.318;19.874;2023-12-14T05:08:58;99316.41;;;6.03;100.00
62942;BME280;49042;47.318;19.874;2023-12-14T05:12:00;99332.28;;;6.42;100.00
62942;BME280;49042;47.318;19.874;2023-12-14T05:15:04;99322.44;;;6.61;100.00
62942;BME280;49042;47.318;19.874;2023-12-14T05:18:06;99327.03;;;6.39;100.00
62942;BME280;49042;47.318;19.874;2023-12-14T05:21:07;99331.66;;;6.51;100.00
62942;BME280;49042;47.318;19.874;2023-12-14T05:24:09;99335.22;;;6.55;100.00
62942;BME280;49042;47.318;19.874;2023-12-14T05:27:11;99329.19;;;6.25;100.00
62942;BME280;49042;47.318;19.874;2023-12-14T05:30:13;99335.75;;;6.42;100.00
62942;BME280;49042;47.318;19.874;2023-12-14T05:33:15;99330.56;;;6.42;100.00
62942;BME280;49042;47.318;19.874;2023-12-14T05:36:16;99331.56;;;6.46;100.00
62942;BME280;49042;47.318;19.874;2023-12-14T05:39:18;99338.31;;;6.72;100.00
62942;BME280;49042;47.318;19.874;2023-12-14T05:42:20;99346.28;;;6.78;100.00
62942;BME280;49042;47.318;19.874;2023-12-14T05:45:21;99336.50;;;6.68;100.00
62942;BME280;49042;47.318;19.874;2023-12-14T05:48:23;99332.63;;;6.55;100.00
62942;BME280;49042;47.318;19.874;2023-12-14T05:51:27;99345.59;;;6.25;100.00
62942;BME280;49042;47.318;19.874;2023-12-14T05:54:29;99343.41;;;6.10;100.00
62942;BME280;49042;47.318;19.874;2023-12-14T05:57:31;99348.88;;;6.19;100.00
62942;BME280;49042;47.318;19.874;2023-12-14T06:00:33;99347.59;;;6.34;100.00
62942;BME280;49042;47.318;19.874;2023-12-14T06:03:36;99362.50;;;6.14;100.00
62942;BME280;49042;47.318;19.874;2023-12-14T06:06:38;99362.22;;;6.06;100.00
62942;BME280;49042;47.318;19.874;2023-12-14T06:09:41;99368.78;;;6.50;100.00
62942;BME280;49042;47.318;19.874;2023-12-14T06:12:42;99377.63;;;6.57;100.00
62942;BME280;49042;47.318;19.874;2023-12-14T06:15:44;99379.16;;;6.50;100.00
62942;BME280;49042;47.318;19.874;2023-12-14T06:18:46;99396.94;;;6.39;100.00
62942;BME280;49042;47.318;19.874;2023-12-14T06:21:48;99390.87;;;6.38;100.00
62942;BME280;49042;47.318;19.874;2023-12-14T06:24:50;99394.78;;;6.53;100.00
62942;BME280;49042;47.318;19.874;2023-12-14T06:27:52;99408.56;;;6.52;100.00
62942;BME280;49042;47.318;19.874;2023-12-14T06:30:53;99401.69;;;6.52;100.00
62942;BME280;49042;47.318;19.874;2023-12-14T06:33:55;99400.31;;;6.36;100.00
62942;BME280;49042;47.318;19.874;2023-12-14T06:37:01;99414.44;;;6.46;100.00
62942;BME280;49042;47.318;19.874;2023-12-14T06:40:05;99418.41;;;6.35;100.00
62942;BME280;49042;47.318;19.874;2023-12-14T06:43:07;99426.44;;;6.16;100.00
62942;BME280;49042;47.318;19.874;2023-12-14T06:46:08;99435.25;;;6.21;100.00
62942;BME280;49042;47.318;19.874;2023-12-14T06:49:10;99435.16;;;6.46;100.00
62942;BME280;49042;47.318;19.874;2023-12-14T06:52:12;99441.31;;;6.50;100.00
62942;BME280;49042;47.318;19.874;2023-12-14T06:55:14;99440.34;;;6.46;100.00
62942;BME280;49042;47.318;19.874;2023-12-14T06:58:17;99445.81;;;6.56;100.00
62942;BME280;49042;47.318;19.874;2023-12-14T07:01:19;99442.00;;;6.44;100.00
62942;BME280;49042;47.318;19.874;2023-12-14T07:04:21;99447.03;;;6.39;100.00
62942;BME280;49042;47.318;19.874;2023-12-14T07:07:22;99450.16;;;6.29;100.00
62942;BME280;49042;47.318;19.874;2023-12-14T07:10:24;99452.75;;;6.57;100.00
62942;BME280;49042;47.318;19.874;2023-12-14T07:13:26;99458.75;;;6.56;100.00
62942;BME280;49042;47.318;19.874;2023-12-14T07:16:28;99448.75;;;6.39;100.00
62942;BME280;49042;47.318;19.874;2023-12-14T07:19:29;99458.31;;;6.69;100.00
62942;BME280;49042;47.318;19.874;2023-12-14T07:22:31;99463.12;;;6.57;100.00
62942;BME280;49042;47.318;19.874;2023-12-14T07:25:33;99470.81;;;6.83;100.00
62942;BME280;49042;47.318;19.874;2023-12-14T07:28:35;99464.12;;;6.62;100.00
62942;BME280;49042;47.318;19.874;2023-12-14T07:31:37;99465.16;;;6.67;100.00
62942;BME280;49042;47.318;19.874;2023-12-14T07:34:39;99463.03;;;6.83;100.00
62942;BME280;49042;47.318;19.874;2023-12-14T07:37:40;99468.03;;;6.77;100.00
62942;BME280;49042;47.318;19.874;2023-12-14T07:40:42;99469.66;;;6.73;100.00
62942;BME280;49042;47.318;19.874;2023-12-14T07:43:44;99477.34;;;6.70;100.00
62942;BME280;49042;47.318;19.874;2023-12-14T07:46:46;99480.34;;;6.84;100.00
62942;BME280;49042;47.318;19.874;2023-12-14T07:49:47;99498.31;;;6.78;100.00
62942;BME280;49042;47.318;19.874;2023-12-14T07:52:49;99492.97;;;6.73;100.00
62942;BME280;49042;47.318;19.874;2023-12-14T07:55:51;99511.94;;;6.72;100.00
62942;BME280;49042;47.318;19.874;2023-12-14T07:58:53;99514.00;;;6.82;100.00
62942;BME280;49042;47.318;19.874;2023-12-14T08:01:55;99518.09;;;6.75;100.00
62942;BME280;49042;47.318;19.874;2023-12-14T08:04:56;99524.94;;;6.46;100.00
62942;BME280;49042;47.318;19.874;2023-12-14T08:07:58;99530.78;;;6.66;100.00
62942;BME280;49042;47.318;19.874;2023-12-14T08:11:01;99532.28;;;6.59;100.00
62942;BME280;49042;47.318;19.874;2023-12-14T08:14:03;99538.19;;;6.83;100.00
62942;BME280;49042;47.318;19.874;2023-12-14T08:17:05;99536.19;;;7.02;100.00
62942;BME280;49042;47.318;19.874;2023-12-14T08:20:07;99541.72;;;7.13;100.00
62942;BME280;49042;47.318;19.874;2023-12-14T08:23:10;99546.09;;;7.15;100.00
62942;BME280;49042;47.318;19.874;2023-12-14T08:26:12;99555.12;;;6.99;100.00
62942;BME280;49042;47.318;19.874;2023-12-14T08:29:14;99550.78;;;6.98;100.00
62942;BME280;49042;47.318;19.874;2023-12-14T08:32:16;99556.53;;;6.89;100.00
62942;BME280;49042;47.318;19.874;2023-12-14T08:35:18;99575.88;;;6.99;100.00
62942;BME280;49042;47.318;19.874;2023-12-14T08:38:20;99583.03;;;7.06;100.00
62942;BME280;49042;47.318;19.874;2023-12-14T08:41:22;99580.66;;;7.14;100.00
62942;BME280;49042;47.318;19.874;2023-12-14T08:44:23;99579.75;;;7.42;100.00
62942;BME280;49042;47.318;19.874;2023-12-14T08:47:25;99578.38;;;7.55;100.00
62942;BME280;49042;47.318;19.874;2023-12-14T08:50:27;99584.53;;;7.89;100.00
62942;BME280;49042;47.318;19.874;2023-12-14T08:53:28;99584.56;;;8.22;100.00
62942;BME280;49042;47.318;19.874;2023-12-14T08:56:31;99578.31;;;8.15;100.00
62942;BME280;49042;47.318;19.874;2023-12-14T08:59:33;99592.78;;;8.05;100.00
62942;BME280;49042;47.318;19.874;2023-12-14T09:02:35;99596.50;;;8.15;100.00
62942;BME280;49042;47.318;19.874;2023-12-14T09:05:37;99601.84;;;8.21;100.00
62942;BME280;49042;47.318;19.874;2023-12-14T09:08:44;99595.47;;;7.77;100.00
62942;BME280;49042;47.318;19.874;2023-12-14T09:11:46;99602.72;;;7.89;100.00
62942;BME280;49042;47.318;19.874;2023-12-14T09:14:47;99601.34;;;8.02;100.00
62942;BME280;49042;47.318;19.874;2023-12-14T09:17:49;99617.22;;;8.13;100.00
62942;BME280;49042;47.318;19.874;2023-12-14T09:20:51;99612.59;;;8.01;100.00
62942;BME280;49042;47.318;19.874;2023-12-14T09:23:52;99622.63;;;8.21;100.00
62942;BME280;49042;47.318;19.874;2023-12-14T09:26:55;99619.44;;;8.32;100.00
62942;BME280;49042;47.318;19.874;2023-12-14T09:29:56;99617.19;;;8.12;100.00
62942;BME280;49042;47.318;19.874;2023-12-14T09:32:58;99618.13;;;8.48;100.00
62942;BME280;49042;47.318;19.874;2023-12-14T09:36:00;99619.19;;;8.55;100.00
62942;BME280;49042;47.318;19.874;2023-12-14T09:39:02;99620.69;;;8.79;100.00
62942;BME280;49042;47.318;19.874;2023-12-14T09:42:05;99617.69;;;8.99;100.00
62942;BME280;49042;47.318;19.874;2023-12-14T09:45:08;99611.75;;;9.05;100.00
62942;BME280;49042;47.318;19.874;2023-12-14T09:48:11;99602.91;;;9.35;100.00
62942;BME280;49042;47.318;19.874;2023-12-14T09:51:15;99613.53;;;9.45;100.00
62942;BME280;49042;47.318;19.874;2023-12-14T09:54:17;99615.59;;;9.60;100.00
62942;BME280;49042;47.318;19.874;2023-12-14T09:57:19;99622.72;;;9.30;100.00
62942;BME280;49042;47.318;19.874;2023-12-14T10:00:35;99608.28;;;9.43;100.00
62942;BME280;49042;47.318;19.874;2023-12-14T10:03:37;99618.97;;;9.56;100.00
62942;BME280;49042;47.318;19.874;2023-12-14T10:06:40;99626.25;;;9.72;100.00
62942;BME280;49042;47.318;19.874;2023-12-14T10:09:42;99635.91;;;8.99;100.00
62942;BME280;49042;47.318;19.874;2023-12-14T10:12:54;99638.75;;;9.10;100.00
62942;BME280;49042;47.318;19.874;2023-12-14T10:15:56;99633.97;;;8.90;100.00
62942;BME280;49042;47.318;19.874;2023-12-14T10:18:58;99636.03;;;9.04;100.00
62942;BME280;49042;47.318;19.874;2023-12-14T10:22:01;99637.06;;;9.10;100.00
62942;BME280;49042;47.318;19.874;2023-12-14T10:25:03;99641.63;;;9.61;100.00
62942;BME280;49042;47.318;19.874;2023-12-14T10:28:06;99640.38;;;9.42;100.00
62942;BME280;49042;47.318;19.874;2023-12-14T10:31:09;99646.00;;;9.24;100.00
62942;BME280;49042;47.318;19.874;2023-12-14T10:34:11;99644.31;;;9.24;100.00
62942;BME280;49042;47.318;19.874;2023-12-14T10:37:15;99662.78;;;9.35;100.00
62942;BME280;49042;47.318;19.874;2023-12-14T10:40:19;99656.94;;;9.46;100.00
62942;BME280;49042;47.318;19.874;2023-12-14T10:43:22;99659.22;;;8.96;100.00
62942;BME280;49042;47.318;19.874;2023-12-14T10:46:48;99658.13;;;9.60;100.00
62942;BME280;49042;47.318;19.874;2023-12-14T10:49:50;99657.81;;;9.87;100.00
62942;BME280;49042;47.318;19.874;2023-12-14T10:52:53;99662.19;;;9.88;100.00
62942;BME280;49042;47.318;19.874;2023-12-14T10:55:55;99671.81;;;9.51;100.00
62942;BME280;49042;47.318;19.874;2023-12-14T10:59:00;99680.06;;;9.33;100.00
62942;BME280;49042;47.318;19.874;2023-12-14T11:02:09;99684.16;;;9.21;100.00
62942;BME280;49042;47.318;19.874;2023-12-14T11:05:13;99689.28;;;9.18;100.00
62942;BME280;49042;47.318;19.874;2023-12-14T11:08:17;99691.62;;;9.09;100.00
62942;BME280;49042;47.318;19.874;2023-12-14T11:11:19;99693.72;;;9.61;100.00
62942;BME280;49042;47.318;19.874;2023-12-14T11:14:23;99689.37;;;9.62;100.00
62942;BME280;49042;47.318;19.874;2023-12-14T11:17:25;99684.59;;;10.23;100.00
62942;BME280;49042;47.318;19.874;2023-12-14T11:20:27;99685.78;;;9.95;100.00
62942;BME280;49042;47.318;19.874;2023-12-14T11:23:38;99689.94;;;9.85;100.00
62942;BME280;49042;47.318;19.874;2023-12-14T11:26:40;99689.63;;;9.73;100.00
62942;BME280;49042;47.318;19.874;2023-12-14T11:29:42;99694.78;;;9.70;100.00
62942;BME280;49042;47.318;19.874;2023-12-14T11:32:44;99704.19;;;9.63;100.00
62942;BME280;49042;47.318;19.874;2023-12-14T11:35:46;99700.97;;;9.36;100.00
62942;BME280;49042;47.318;19.874;2023-12-14T11:38:48;99711.19;;;8.93;100.00
62942;BME280;49042;47.318;19.874;2023-12-14T11:42:05;99714.75;;;8.98;100.00
62942;BME280;49042;47.318;19.874;2023-12-14T11:45:09;99706.38;;;8.74;100.00
62942;BME280;49042;47.318;19.874;2023-12-14T11:48:12;99717.25;;;8.93;100.00
62942;BME280;49042;47.318;19.874;2023-12-14T11:51:15;99721.97;;;9.08;100.00
62942;BME280;49042;47.318;19.874;2023-12-14T11:54:17;99723.94;;;9.55;100.00
62942;BME280;49042;47.318;19.874;2023-12-14T11:57:19;99723.16;;;9.21;100.00
62942;BME280;49042;47.318;19.874;2023-12-14T12:00:25;99720.91;;;9.36;100.00
62942;BME280;49042;47.318;19.874;2023-12-14T12:03:32;99723.78;;;9.47;100.00
62942;BME280;49042;47.318;19.874;2023-12-14T12:06:34;99728.38;;;8.87;100.00
62942;BME280;49042;47.318;19.874;2023-12-14T12:09:38;99724.84;;;9.19;100.00
62942;BME280;49042;47.318;19.874;2023-12-14T12:12:42;99739.28;;;9.42;100.00
62942;BME280;49042;47.318;19.874;2023-12-14T12:15:47;99733.66;;;9.25;100.00
62942;BME280;49042;47.318;19.874;2023-12-14T12:18:49;99734.41;;;9.95;100.00
62942;BME280;49042;47.318;19.874;2023-12-14T12:21:54;99732.19;;;10.56;100.00
62942;BME280;49042;47.318;19.874;2023-12-14T12:24:55;99721.28;;;11.29;100.00
62942;BME280;49042;47.318;19.874;2023-12-14T12:28:12;99733.09;;;11.06;100.00
62942;BME280;49042;47.318;19.874;2023-12-14T12:31:14;99738.81;;;11.36;100.00
62942;BME280;49042;47.318;19.874;2023-12-14T12:34:15;99733.06;;;11.57;100.00
62942;BME280;49042;47.318;19.874;2023-12-14T12:37:17;99727.84;;;11.57;100.00
62942;BME280;49042;47.318;19.874;2023-12-14T12:40:20;99742.97;;;11.24;100.00
62942;BME280;49042;47.318;19.874;2023-12-14T12:43:22;99738.09;;;12.04;100.00
62942;BME280;49042;47.318;19.874;2023-12-14T12:46:24;99753.41;;;11.23;100.00
62942;BME280;49042;47.318;19.874;2023-12-14T12:49:26;99750.31;;;10.95;100.00
62942;BME280;49042;47.318;19.874;2023-12-14T12:52:28;99761.56;;;10.48;100.00
62942;BME280;49042;47.318;19.874;2023-12-14T12:55:30;99768.09;;;10.27;100.00
62942;BME280;49042;47.318;19.874;2023-12-14T12:58:31;99775.94;;;9.89;100.00
62942;BME280;49042;47.318;19.874;2023-12-14T13:01:33;99785.28;;;9.80;100.00
62942;BME280;49042;47.318;19.874;2023-12-14T13:04:35;99790.88;;;9.59;100.00
62942;BME280;49042;47.318;19.874;2023-12-14T13:07:38;99798.91;;;9.32;100.00
62942;BME280;49042;47.318;19.874;2023-12-14T13:10:40;99807.25;;;9.55;100.00
62942;BME280;49042;47.318;19.874;2023-12-14T13:13:42;99811.25;;;9.41;100.00
62942;BME280;49042;47.318;19.874;2023-12-14T13:16:45;99812.53;;;9.24;100.00
62942;BME280;49042;47.318;19.874;2023-12-14T13:19:47;99814.69;;;9.06;100.00
62942;BME280;49042;47.318;19.874;2023-12-14T13:22:49;99823.41;;;9.07;100.00
62942;BME280;49042;47.318;19.874;2023-12-14T13:25:51;99832.97;;;8.77;100.00
62942;BME280;49042;47.318;19.874;2023-12-14T13:28:53;99838.19;;;9.09;100.00
62942;BME280;49042;47.318;19.874;2023-12-14T13:31:55;99843.16;;;9.32;100.00
62942;BME280;49042;47.318;19.874;2023-12-14T13:34:57;99851.56;;;9.22;100.00
62942;BME280;49042;47.318;19.874;2023-12-14T13:37:58;99851.06;;;9.05;100.00
62942;BME280;49042;47.318;19.874;2023-12-14T13:41:04;99855.31;;;9.01;100.00
62942;BME280;49042;47.318;19.874;2023-12-14T13:44:07;99860.94;;;9.17;100.00
62942;BME280;49042;47.318;19.874;2023-12-14T13:47:08;99862.28;;;9.02;100.00
62942;BME280;49042;47.318;19.874;2023-12-14T13:50:10;99866.44;;;8.64;100.00
62942;BME280;49042;47.318;19.874;2023-12-14T13:53:12;99872.44;;;8.62;100.00
62942;BME280;49042;47.318;19.874;2023-12-14T13:56:16;99873.44;;;8.67;100.00
62942;BME280;49042;47.318;19.874;2023-12-14T13:59:18;99888.47;;;8.77;100.00
62942;BME280;49042;47.318;19.874;2023-12-14T14:02:21;99887.16;;;8.92;100.00
62942;BME280;49042;47.318;19.874;2023-12-14T14:05:23;99896.66;;;9.23;100.00
62942;BME280;49042;47.318;19.874;2023-12-14T14:08:25;99904.38;;;9.19;100.00
62942;BME280;49042;47.318;19.874;2023-12-14T14:11:27;99921.50;;;9.11;100.00
62942;BME280;49042;47.318;19.874;2023-12-14T14:14:29;99925.28;;;9.23;100.00
62942;BME280;49042;47.318;19.874;2023-12-14T14:17:30;99924.28;;;9.17;100.00
62942;BME280;49042;47.318;19.874;2023-12-14T14:20:32;99932.84;;;8.84;100.00
62942;BME280;49042;47.318;19.874;2023-12-14T14:23:34;99946.13;;;8.93;100.00
62942;BME280;49042;47.318;19.874;2023-12-14T14:26:36;99955.37;;;8.55;100.00
62942;BME280;49042;47.318;19.874;2023-12-14T14:29:38;99960.69;;;8.86;100.00
62942;BME280;49042;47.318;19.874;2023-12-14T14:32:39;99956.53;;;8.93;100.00
62942;BME280;49042;47.318;19.874;2023-12-14T14:35:41;99974.25;;;8.76;100.00
62942;BME280;49042;47.318;19.874;2023-12-14T14:38:43;99975.16;;;8.78;100.00
62942;BME280;49042;47.318;19.874;2023-12-14T14:41:45;99978.78;;;8.83;100.00
62942;BME280;49042;47.318;19.874;2023-12-14T14:44:46;99988.31;;;8.83;100.00
62942;BME280;49042;47.318;19.874;2023-12-14T14:47:48;99988.00;;;8.73;100.00
62942;BME280;49042;47.318;19.874;2023-12-14T14:50:50;99995.22;;;8.82;100.00
62942;BME280;49042;47.318;19.874;2023-12-14T14:53:53;100006.28;;;8.75;100.00
62942;BME280;49042;47.318;19.874;2023-12-14T14:56:55;100011.78;;;8.58;100.00
62942;BME280;49042;47.318;19.874;2023-12-14T14:59:57;100004.00;;;8.58;100.00
62942;BME280;49042;47.318;19.874;2023-12-14T15:02:59;100011.03;;;8.61;100.00
62942;BME280;49042;47.318;19.874;2023-12-14T15:06:03;100015.00;;;8.77;100.00
62942;BME280;49042;47.318;19.874;2023-12-14T15:09:05;100019.38;;;8.78;100.00
62942;BME280;49042;47.318;19.874;2023-12-14T15:12:10;100016.69;;;8.76;100.00
62942;BME280;49042;47.318;19.874;2023-12-14T15:15:12;100018.47;;;8.77;100.00
62942;BME280;49042;47.318;19.874;2023-12-14T15:18:14;100022.75;;;8.75;100.00
62942;BME280;49042;47.318;19.874;2023-12-14T15:21:16;100022.44;;;8.66;100.00
62942;BME280;49042;47.318;19.874;2023-12-14T15:24:18;100035.84;;;8.52;100.00
62942;BME280;49042;47.318;19.874;2023-12-14T15:27:19;100033.34;;;8.55;100.00
62942;BME280;49042;47.318;19.874;2023-12-14T15:30:21;100041.31;;;8.34;100.00
62942;BME280;49042;47.318;19.874;2023-12-14T15:33:23;100038.97;;;8.42;100.00
62942;BME280;49042;47.318;19.874;2023-12-14T15:36:25;100060.56;;;8.39;100.00
62942;BME280;49042;47.318;19.874;2023-12-14T15:39:26;100059.88;;;8.45;100.00
62942;BME280;49042;47.318;19.874;2023-12-14T15:42:28;100066.72;;;8.17;100.00
62942;BME280;49042;47.318;19.874;2023-12-14T15:45:30;100068.44;;;8.42;100.00
62942;BME280;49042;47.318;19.874;2023-12-14T15:48:34;100072.94;;;8.46;100.00
62942;BME280;49042;47.318;19.874;2023-12-14T15:51:41;100082.06;;;8.09;100.00
62942;BME280;49042;47.318;19.874;2023-12-14T15:54:42;100088.50;;;8.20;100.00